Time;durP1;ratioP1;P1;durP2;ratioP2;P2;SDS_P1;SDS_P2;PMS_P1;PMS_P2;Temp;Humidity;BMP_temperature;BMP_pressure;BME280_temperature;BME280_humidity;BME280_pressure;Samples;Min_cycle;Max_cycle;Signal;HPM_P1;HPM_P2
2023/10/22 00:01:13;;;;;;;0.50;0.50;;;;;;;14.00;85.75;99036.31;5057035;28;20021;-67
2023/10/22 00:03:38;;;;;;;0.40;0.40;;;;;;;14.16;84.33;99064.69;5051685;28;20412;-66
2023/10/22 00:06:04;;;;;;;0.40;0.40;;;;;;;14.16;84.60;99071.84;5053889;28;20032;-67
2023/10/22 00:08:29;;;;;;;0.40;0.40;;;;;;;14.19;85.06;99063.63;5053858;28;20147;-67
2023/10/22 00:10:55;;;;;;;0.40;0.40;;;;;;;14.20;84.24;99070.72;5052139;28;20174;-67
2023/10/22 00:13:20;;;;;;;0.40;0.40;;;;;;;14.21;84.37;99075.09;5078841;28;20502;-66
2023/10/22 00:15:45;;;;;;;0.38;0.38;;;;;;;14.20;83.91;99070.72;5071507;28;20035;-67
2023/10/22 00:18:11;;;;;;;0.40;0.40;;;;;;;14.19;83.69;99077.00;5070762;28;20698;-67
2023/10/22 00:20:38;;;;;;;0.40;0.40;;;;;;;14.14;84.47;99079.09;5089158;28;20115;-67
2023/10/22 00:23:03;;;;;;;0.40;0.40;;;;;;;14.09;84.76;99083.88;5090697;28;20024;-67
2023/10/22 00:25:29;;;;;;;0.40;0.40;;;;;;;14.04;84.62;99083.28;5090915;28;20039;-67
2023/10/22 00:27:55;;;;;;;0.40;0.40;;;;;;;13.99;84.74;99094.28;5088350;28;20733;-66
2023/10/22 00:30:20;;;;;;;0.50;0.50;;;;;;;13.93;85.05;99093.78;5070535;28;20024;-66
2023/10/22 00:32:46;;;;;;;0.40;0.40;;;;;;;13.86;85.59;99093.28;5073014;28;20035;-66
2023/10/22 00:35:12;;;;;;;0.40;0.40;;;;;;;13.83;85.75;99090.81;5079187;28;20170;-67
2023/10/22 00:37:37;;;;;;;0.40;0.40;;;;;;;13.79;86.26;99101.78;5091698;28;20420;-67
2023/10/22 00:40:03;;;;;;;0.40;0.40;;;;;;;13.78;86.78;99102.72;5077640;28;20039;-67
2023/10/22 00:42:29;;;;;;;0.40;0.40;;;;;;;13.70;87.58;99105.00;5083125;28;20031;-66
2023/10/22 00:44:54;;;;;;;0.47;0.47;;;;;;;13.70;87.35;99105.00;5091552;28;20113;-67
2023/10/22 00:47:20;;;;;;;0.50;0.50;;;;;;;13.69;88.14;99097.94;5091709;28;20436;-67
2023/10/22 00:49:46;;;;;;;0.40;0.40;;;;;;;13.63;87.83;99106.31;5073538;28;20048;-68
2023/10/22 00:52:11;;;;;;;0.40;0.40;;;;;;;13.61;87.72;99113.53;5071058;28;20094;-67
2023/10/22 00:54:37;;;;;;;0.43;0.43;;;;;;;13.56;88.52;99110.31;5077357;28;20089;-68
2023/10/22 00:57:03;;;;;;;0.40;0.40;;;;;;;13.56;88.06;99112.97;5091123;28;20013;-68
2023/10/22 00:59:29;;;;;;;0.40;0.40;;;;;;;13.57;88.67;99120.91;5091317;28;20036;-67
2023/10/22 01:01:54;;;;;;;0.50;0.50;;;;;;;13.55;88.16;99119.25;5085831;28;20440;-63
2023/10/22 01:04:20;;;;;;;0.40;0.40;;;;;;;13.53;88.71;99116.69;5071495;28;20055;-63
2023/10/22 01:06:46;;;;;;;0.50;0.50;;;;;;;13.51;89.04;99123.09;5070798;28;20025;-63
2023/10/22 01:09:11;;;;;;;0.47;0.47;;;;;;;13.47;89.16;99118.84;5072854;28;20071;-63
2023/10/22 01:11:56;;;;;;;0.40;0.40;;;;;;;13.45;89.04;99118.06;5074167;28;20106;-64
2023/10/22 01:14:21;;;;;;;0.50;0.50;;;;;;;13.41;89.04;99119.22;5061900;28;20132;-64
2023/10/22 01:16:47;;;;;;;0.50;0.50;;;;;;;13.37;89.38;99120.34;5049802;28;20104;-64
2023/10/22 01:19:12;;;;;;;0.50;0.50;;;;;;;13.38;89.77;99117.56;5049772;28;20833;-64
2023/10/22 01:21:37;;;;;;;0.50;0.50;;;;;;;13.34;89.14;99121.38;5052226;28;20033;-63
2023/10/22 01:24:03;;;;;;;0.40;0.40;;;;;;;13.32;89.37;99127.75;5064513;28;20647;-64
2023/10/22 01:26:29;;;;;;;0.50;0.50;;;;;;;13.28;89.88;99127.06;5077153;28;20077;-64
2023/10/22 01:28:54;;;;;;;0.47;0.47;;;;;;;13.29;90.32;99135.94;5066717;28;20229;-63
2023/10/22 01:31:19;;;;;;;0.50;0.50;;;;;;;13.27;90.57;99124.47;5073438;28;20468;-64
2023/10/22 01:33:45;;;;;;;0.45;0.45;;;;;;;13.19;89.98;99122.28;5067918;28;20120;-63
2023/10/22 01:36:10;;;;;;;0.40;0.40;;;;;;;13.20;90.06;99130.19;5050452;28;20507;-64
2023/10/22 01:38:36;;;;;;;0.50;0.50;;;;;;;13.18;89.96;99131.22;5049885;28;20032;-64
2023/10/22 01:41:07;;;;;;;0.40;0.40;;;;;;;13.18;90.16;99125.88;5062236;28;20039;-63
2023/10/22 01:43:32;;;;;;;0.47;0.47;;;;;;;13.17;90.37;99130.38;5070249;28;20027;-63
2023/10/22 01:45:58;;;;;;;0.40;0.40;;;;;;;13.13;90.73;99128.81;5070087;28;20028;-63
2023/10/22 01:48:23;;;;;;;0.50;0.50;;;;;;;13.12;90.62;99131.56;5069040;28;20797;-64
2023/10/22 01:50:49;;;;;;;0.40;0.40;;;;;;;13.04;90.72;99124.00;5051655;28;20032;-64
2023/10/22 01:53:14;;;;;;;0.50;0.50;;;;;;;13.14;90.58;99135.88;5057645;28;20082;-63
2023/10/22 01:55:39;;;;;;;0.50;0.50;;;;;;;13.14;90.49;99140.34;5058328;28;20120;-65
2023/10/22 01:58:05;;;;;;;0.40;0.40;;;;;;;13.17;90.16;99133.03;5048912;28;20462;-63
2023/10/22 02:00:32;;;;;;;0.50;0.50;;;;;;;13.22;90.60;99138.09;5049024;28;20123;-64
2023/10/22 02:02:57;;;;;;;0.50;0.50;;;;;;;13.23;90.21;99141.66;5049321;28;20096;-67
2023/10/22 02:05:23;;;;;;;0.50;0.50;;;;;;;13.30;90.08;99137.66;5062201;28;20368;-67
2023/10/22 02:07:48;;;;;;;0.47;0.47;;;;;;;13.27;89.76;99145.84;5072064;28;20039;-67
2023/10/22 02:10:14;;;;;;;0.50;0.50;;;;;;;13.30;89.58;99148.34;5068601;28;20522;-66
2023/10/22 02:12:39;;;;;;;0.40;0.40;;;;;;;13.30;89.29;99151.00;5071044;28;20044;-67
2023/10/22 02:15:05;;;;;;;0.50;0.50;;;;;;;13.25;89.63;99151.28;5051350;28;20025;-67
2023/10/22 02:17:30;;;;;;;0.40;0.40;;;;;;;13.24;89.98;99153.09;5060316;28;20086;-67
2023/10/22 02:19:56;;;;;;;0.50;0.50;;;;;;;13.21;89.62;99147.91;5055974;28;20029;-67
2023/10/22 02:22:21;;;;;;;0.40;0.40;;;;;;;13.17;90.44;99149.06;5050077;28;20039;-66
2023/10/22 02:24:47;;;;;;;0.43;0.43;;;;;;;13.18;90.14;99158.78;5068835;28;20447;-68
2023/10/22 02:27:12;;;;;;;0.50;0.50;;;;;;;13.17;89.57;99162.41;5069528;28;20563;-66
2023/10/22 02:29:37;;;;;;;0.50;0.50;;;;;;;13.15;89.93;99156.28;5052764;28;20337;-67
2023/10/22 02:32:06;;;;;;;0.40;0.40;;;;;;;13.08;90.32;99157.56;5064107;28;20028;-67
2023/10/22 02:34:32;;;;;;;0.40;0.40;;;;;;;13.02;90.58;99152.59;5065894;28;20033;-67
2023/10/22 02:36:57;;;;;;;0.40;0.40;;;;;;;12.98;90.63;99152.81;5069408;28;20025;-67
2023/10/22 02:39:23;;;;;;;0.40;0.40;;;;;;;12.96;91.20;99158.22;5050930;28;20555;-69
2023/10/22 02:41:48;;;;;;;0.40;0.40;;;;;;;12.92;91.12;99155.81;5068977;28;20039;-67
2023/10/22 02:44:13;;;;;;;0.50;0.50;;;;;;;12.94;91.02;99159.25;5064805;28;20017;-67
2023/10/22 02:46:39;;;;;;;0.50;0.50;;;;;;;12.92;90.77;99156.69;5069081;28;20028;-66
2023/10/22 02:49:04;;;;;;;0.50;0.50;;;;;;;12.92;91.05;99156.69;5068325;28;20123;-66
2023/10/22 02:51:32;;;;;;;0.50;0.50;;;;;;;12.86;90.60;99167.72;5068608;28;20093;-66
2023/10/22 02:53:57;;;;;;;0.40;0.40;;;;;;;12.82;91.10;99171.47;5065693;28;20032;-66
2023/10/22 02:56:23;;;;;;;0.47;0.47;;;;;;;12.78;91.17;99172.59;5067929;28;20410;-66
2023/10/22 02:58:48;;;;;;;0.50;0.50;;;;;;;12.78;91.35;99175.25;5056361;28;20036;-66
2023/10/22 03:01:16;;;;;;;0.50;0.50;;;;;;;12.77;90.80;99181.53;5047214;28;20025;-67
2023/10/22 03:03:42;;;;;;;0.50;0.50;;;;;;;12.77;90.59;99184.22;5050068;28;20434;-66
2023/10/22 03:06:09;;;;;;;0.50;0.50;;;;;;;12.78;90.75;99185.09;5046714;28;20029;-66
2023/10/22 03:08:37;;;;;;;0.50;0.50;;;;;;;12.76;91.07;99187.84;5048040;28;20037;-66
2023/10/22 03:11:04;;;;;;;0.50;0.50;;;;;;;12.76;91.51;99205.66;5048819;28;20021;-66
2023/10/22 03:13:30;;;;;;;0.50;0.50;;;;;;;12.74;90.73;99205.75;5070193;28;20556;-67
2023/10/22 03:15:57;;;;;;;0.50;0.50;;;;;;;12.71;91.02;99203.25;5067943;28;20039;-66
2023/10/22 03:18:24;;;;;;;0.50;0.50;;;;;;;12.72;91.33;99207.63;5069068;28;20069;-67
2023/10/22 03:20:50;;;;;;;0.50;0.50;;;;;;;12.69;91.34;99217.59;5076439;28;20062;-67
2023/10/22 03:23:16;;;;;;;0.50;0.50;;;;;;;12.67;91.15;99209.66;5085383;28;20040;-67
2023/10/22 03:25:43;;;;;;;0.60;0.60;;;;;;;12.70;91.25;99209.50;5088946;28;20045;-67
2023/10/22 03:28:09;;;;;;;0.50;0.50;;;;;;;12.72;91.36;99215.63;5088718;28;20063;-66
2023/10/22 03:30:38;;;;;;;0.50;0.50;;;;;;;12.66;91.08;99199.97;5086313;28;20024;-66
2023/10/22 03:33:03;;;;;;;0.50;0.50;;;;;;;12.74;91.09;99203.06;5087930;28;20081;-66
2023/10/22 03:35:29;;;;;;;0.50;0.50;;;;;;;12.82;90.28;99207.97;5088615;28;20032;-66
2023/10/22 03:37:55;;;;;;;0.50;0.50;;;;;;;12.87;90.27;99214.78;5088472;28;20463;-67
2023/10/22 03:40:20;;;;;;;0.50;0.50;;;;;;;12.95;89.90;99215.22;5085567;28;20135;-66
2023/10/22 03:42:47;;;;;;;0.50;0.50;;;;;;;12.98;89.35;99225.75;5089006;28;20154;-66
2023/10/22 03:45:13;;;;;;;0.50;0.50;;;;;;;12.98;89.12;99220.41;5087588;28;20403;-66
2023/10/22 03:47:38;;;;;;;0.50;0.50;;;;;;;12.98;89.38;99231.06;5070654;28;20036;-68
2023/10/22 03:50:04;;;;;;;0.50;0.50;;;;;;;12.97;89.04;99228.50;5068403;28;20487;-66
2023/10/22 03:52:30;;;;;;;0.50;0.50;;;;;;;13.04;88.17;99236.13;5073274;28;20037;-66
2023/10/22 03:54:55;;;;;;;0.50;0.50;;;;;;;13.03;88.63;99242.41;5088555;28;20032;-66
2023/10/22 03:57:21;;;;;;;0.50;0.50;;;;;;;13.02;88.70;99251.38;5086721;28;20020;-67
2023/10/22 03:59:46;;;;;;;0.50;0.50;;;;;;;12.96;88.21;99248.97;5086095;28;20514;-67
2023/10/22 04:02:11;;;;;;;0.50;0.50;;;;;;;13.00;88.70;99255.88;5088276;28;20528;-67
2023/10/22 04:04:37;;;;;;;0.50;0.50;;;;;;;13.00;88.82;99266.56;5087426;28;20047;-66
2023/10/22 04:07:03;;;;;;;0.50;0.50;;;;;;;12.99;89.06;99264.84;5090827;28;20034;-67
2023/10/22 04:09:31;;;;;;;0.50;0.50;;;;;;;12.95;89.53;99273.97;5089274;28;20063;-67
2023/10/22 04:11:57;;;;;;;0.50;0.50;;;;;;;12.94;89.66;99274.91;5074282;28;20044;-67
2023/10/22 04:14:22;;;;;;;0.40;0.40;;;;;;;12.86;89.38;99274.47;5078315;28;20035;-66
2023/10/22 04:16:50;;;;;;;0.50;0.50;;;;;;;12.87;89.85;99264.63;5088756;28;20077;-67
2023/10/22 04:19:16;;;;;;;0.50;0.50;;;;;;;12.89;89.77;99268.97;5071520;28;20068;-67
2023/10/22 04:21:41;;;;;;;0.50;0.50;;;;;;;12.89;89.71;99279.63;5082215;28;20579;-67
2023/10/22 04:24:08;;;;;;;0.50;0.50;;;;;;;12.84;89.20;99279.03;5091895;28;20436;-64
2023/10/22 04:26:34;;;;;;;0.50;0.50;;;;;;;12.81;89.36;99280.97;5084313;28;20093;-63
2023/10/22 04:29:00;;;;;;;0.50;0.50;;;;;;;12.81;89.83;99279.19;5071517;28;20441;-63
2023/10/22 04:31:26;;;;;;;0.40;0.40;;;;;;;12.80;89.72;99285.44;5072035;28;20032;-63
2023/10/22 04:33:51;;;;;;;0.50;0.50;;;;;;;12.79;89.89;99283.75;5073267;28;20033;-63
2023/10/22 04:36:20;;;;;;;0.50;0.50;;;;;;;12.75;89.58;99290.16;5084294;28;20035;-64
2023/10/22 04:38:45;;;;;;;0.50;0.50;;;;;;;12.66;89.84;99288.00;5090729;28;20093;-63
2023/10/22 04:41:12;;;;;;;0.50;0.50;;;;;;;12.67;90.31;99294.19;5084822;28;20023;-64
2023/10/22 04:43:37;;;;;;;0.50;0.50;;;;;;;12.62;90.37;99297.09;5071524;28;20071;-63
2023/10/22 04:46:02;;;;;;;0.50;0.50;;;;;;;12.62;91.24;99301.59;5079557;28;20012;-64
2023/10/22 04:48:28;;;;;;;0.50;0.50;;;;;;;12.57;91.51;99299.13;5091318;28;20028;-63
2023/10/22 04:50:55;;;;;;;0.50;0.50;;;;;;;12.51;91.26;99287.94;5082671;28;20032;-64
2023/10/22 04:53:20;;;;;;;0.50;0.50;;;;;;;12.47;92.00;99289.88;5080319;28;20035;-63
2023/10/22 04:55:55;;;;;;;0.60;0.60;;;;;;;12.49;91.91;99301.34;5090653;28;20650;-64
2023/10/22 04:58:22;;;;;;;0.50;0.50;;;;;;;12.51;92.94;99299.47;5065134;28;20051;-63
2023/10/22 05:00:47;;;;;;;0.60;0.60;;;;;;;12.48;92.66;99293.41;5071920;28;20088;-63
2023/10/22 05:03:13;;;;;;;0.50;0.50;;;;;;;12.45;93.07;99297.13;5090110;28;20509;-63
2023/10/22 05:05:38;;;;;;;0.50;0.50;;;;;;;12.39;93.36;99299.25;5089143;28;20023;-64
2023/10/22 05:08:05;;;;;;;0.50;0.50;;;;;;;12.44;93.24;99298.06;5089282;28;20119;-63
2023/10/22 05:10:35;;;;;;;0.40;0.40;;;;;;;12.47;93.38;99302.38;5082125;28;20450;-64
2023/10/22 05:13:01;;;;;;;0.50;0.50;;;;;;;12.48;92.95;99298.75;5085476;28;20113;-63
2023/10/22 05:15:26;;;;;;;0.55;0.55;;;;;;;12.48;93.00;99296.97;5088900;28;20031;-64
2023/10/22 05:17:51;;;;;;;0.50;0.50;;;;;;;12.51;92.90;99298.59;5089980;28;20197;-63
2023/10/22 05:20:18;;;;;;;0.50;0.50;;;;;;;12.54;93.26;99306.44;5079223;28;20476;-64
2023/10/22 05:22:44;;;;;;;0.40;0.40;;;;;;;12.53;92.96;99308.25;5074926;28;20024;-63
2023/10/22 05:25:10;;;;;;;0.50;0.50;;;;;;;12.56;92.10;99310.75;5090906;28;20035;-63
2023/10/22 05:27:35;;;;;;;0.50;0.50;;;;;;;12.52;92.14;99309.19;5090502;28;20032;-64
2023/10/22 05:30:01;;;;;;;0.50;0.50;;;;;;;12.53;92.24;99308.25;5083790;28;20032;-63
2023/10/22 05:32:26;;;;;;;0.50;0.50;;;;;;;12.53;91.96;99312.72;5090588;28;20096;-63
2023/10/22 05:34:51;;;;;;;0.50;0.50;;;;;;;12.46;92.42;99301.50;5090943;28;20470;-66
2023/10/22 05:37:18;;;;;;;0.50;0.50;;;;;;;12.53;92.54;99324.25;5089284;28;20094;-66
2023/10/22 05:39:43;;;;;;;0.50;0.50;;;;;;;12.53;92.72;99329.59;5072356;28;20581;-66
2023/10/22 05:42:09;;;;;;;0.50;0.50;;;;;;;12.54;92.51;99333.97;5077944;28;20048;-66
2023/10/22 05:44:37;;;;;;;0.50;0.50;;;;;;;12.52;92.79;99333.19;5090155;28;20032;-66
2023/10/22 05:47:03;;;;;;;0.50;0.50;;;;;;;12.50;92.49;99342.22;5086819;28;20020;-66
2023/10/22 05:49:29;;;;;;;0.50;0.50;;;;;;;12.49;92.97;99343.16;5069990;28;20078;-66
2023/10/22 05:51:54;;;;;;;0.50;0.50;;;;;;;12.49;93.16;99354.69;5068876;28;20024;-66
2023/10/22 05:54:20;;;;;;;0.60;0.60;;;;;;;12.47;92.68;99356.56;5082488;28;20451;-66
2023/10/22 05:56:45;;;;;;;0.50;0.50;;;;;;;12.47;93.28;99351.22;5088254;28;20131;-66
2023/10/22 05:59:11;;;;;;;0.50;0.50;;;;;;;12.48;93.07;99352.97;5085153;28;20054;-66
2023/10/22 06:01:41;;;;;;;0.50;0.50;;;;;;;12.51;93.00;99351.94;5088905;28;20032;-66
2023/10/22 06:04:10;;;;;;;0.50;0.50;;;;;;;12.50;92.70;99351.09;5088588;28;20388;-66
2023/10/22 06:06:36;;;;;;;0.50;0.50;;;;;;;12.53;92.48;99356.28;5086372;28;20039;-66
2023/10/22 06:09:02;;;;;;;0.50;0.50;;;;;;;12.53;93.15;99345.59;5089554;28;20499;-66
2023/10/22 06:11:28;;;;;;;0.50;0.50;;;;;;;12.62;93.00;99366.47;5089520;28;20139;-66
2023/10/22 06:13:53;;;;;;;0.50;0.50;;;;;;;12.62;92.61;99363.78;5082514;28;20147;-66
2023/10/22 06:16:19;;;;;;;0.60;0.60;;;;;;;12.65;92.82;99368.97;5050079;28;20112;-66
2023/10/22 06:18:47;;;;;;;0.60;0.60;;;;;;;12.65;92.37;99371.63;5060052;28;20020;-66
2023/10/22 06:21:13;;;;;;;0.50;0.50;;;;;;;12.69;92.09;99381.22;5089710;28;20031;-66
2023/10/22 06:23:38;;;;;;;0.57;0.57;;;;;;;12.77;91.90;99387.03;5071433;28;20582;-66
2023/10/22 06:26:04;;;;;;;0.57;0.57;;;;;;;12.86;91.19;99389.25;5062029;28;20125;-67
2023/10/22 06:28:30;;;;;;;0.60;0.60;;;;;;;12.95;90.95;99390.53;5089446;28;20509;-66
2023/10/22 06:31:12;;;;;;;0.50;0.50;;;;;;;13.03;89.75;99393.75;5074236;28;20036;-67
2023/10/22 06:33:40;;;;;;;0.50;0.50;;;;;;;13.10;89.46;99401.34;5051398;28;20051;-66
2023/10/22 06:36:12;;;;;;;0.50;0.50;;;;;;;13.17;89.04;99400.06;5049357;28;20033;-66
2023/10/22 06:38:37;;;;;;;0.50;0.50;;;;;;;13.22;88.65;99405.16;5049327;28;20447;-66
2023/10/22 06:41:05;;;;;;;0.40;0.40;;;;;;;13.29;88.68;99405.69;5064513;28;20108;-66
2023/10/22 06:43:30;;;;;;;0.50;0.50;;;;;;;13.34;88.22;99411.66;5066862;28;20056;-64
2023/10/22 06:45:59;;;;;;;0.50;0.50;;;;;;;13.39;87.39;99421.16;5060734;28;20376;-65
2023/10/22 06:48:25;;;;;;;0.50;0.50;;;;;;;13.40;87.51;99411.31;5050457;28;20515;-64
2023/10/22 06:50:50;;;;;;;0.50;0.50;;;;;;;13.52;86.73;99418.69;5048345;28;20032;-64
2023/10/22 06:53:16;;;;;;;0.50;0.50;;;;;;;13.56;86.37;99414.91;5055646;28;20034;-65
2023/10/22 06:55:42;;;;;;;0.50;0.50;;;;;;;13.68;85.58;99425.78;5045695;28;20024;-62
2023/10/22 06:58:07;;;;;;;0.47;0.47;;;;;;;13.68;86.00;99424.91;5068919;28;20028;-64
2023/10/22 07:00:33;;;;;;;0.50;0.50;;;;;;;13.74;85.21;99430.78;5059752;28;20036;-64
2023/10/22 07:02:58;;;;;;;0.40;0.40;;;;;;;13.99;84.72;99430.31;5049117;28;20490;-64
2023/10/22 07:05:23;;;;;;;0.47;0.47;;;;;;;14.12;85.22;99431.34;5051472;28;20040;-65
2023/10/22 07:07:49;;;;;;;0.40;0.40;;;;;;;15.25;83.59;99433.56;5049036;28;20491;-65
2023/10/22 07:10:14;;;;;;;0.40;0.40;;;;;;;17.38;73.97;99427.63;5049191;28;20121;-65
2023/10/22 07:12:40;;;;;;;0.40;0.40;;;;;;;18.68;62.94;99429.81;5062125;28;20385;-65
2023/10/22 07:15:06;;;;;;;0.30;0.30;;;;;;;19.88;59.10;99436.56;5048173;28;20476;-65
2023/10/22 07:17:31;;;;;;;0.30;0.30;;;;;;;20.99;53.82;99436.41;5068850;28;20081;-65
2023/10/22 07:19:57;;;;;;;0.30;0.30;;;;;;;21.84;49.37;99447.00;5055998;28;20032;-65
2023/10/22 07:22:22;;;;;;;0.20;0.20;;;;;;;22.62;48.85;99453.47;5067563;28;20677;-65
2023/10/22 07:24:50;;;;;;;0.20;0.20;;;;;;;23.14;46.13;99461.28;5065189;28;20024;-65
2023/10/22 07:27:15;;;;;;;0.20;0.20;;;;;;;23.62;44.64;99461.28;5048698;28;20037;-65
2023/10/22 07:29:40;;;;;;;0.30;0.30;;;;;;;23.36;45.13;99452.84;5048686;28;20400;-65
2023/10/22 07:32:06;;;;;;;0.20;0.20;;;;;;;24.07;43.50;99458.75;5051237;28;20032;-65
2023/10/22 07:34:32;;;;;;;0.20;0.20;;;;;;;24.59;42.49;99452.66;5048588;28;20033;-66
2023/10/22 07:36:57;;;;;;;0.13;0.13;;;;;;;25.23;42.02;99449.78;5048627;28;20040;-65
2023/10/22 07:39:23;;;;;;;0.10;0.10;;;;;;;25.67;40.59;99457.88;5052179;28;20037;-64
2023/10/22 07:41:48;;;;;;;0.20;0.20;;;;;;;25.75;39.28;99457.91;5054813;28;20159;-65
2023/10/22 07:44:13;;;;;;;0.20;0.20;;;;;;;25.91;39.51;99430.78;5051955;28;20119;-65
2023/10/22 07:46:39;;;;;;;0.20;0.20;;;;;;;26.06;39.45;99460.22;5053197;28;20074;-65
2023/10/22 07:49:04;;;;;;;0.20;0.20;;;;;;;26.03;39.95;99449.63;5055769;28;20503;-65
2023/10/22 07:51:30;;;;;;;0.10;0.10;;;;;;;25.57;39.49;99454.38;5070427;28;20021;-65
2023/10/22 07:53:56;;;;;;;0.10;0.10;;;;;;;24.68;41.55;99465.34;5070783;28;20040;-66
2023/10/22 07:56:21;;;;;;;0.10;0.10;;;;;;;24.57;41.93;99473.69;5057827;28;20076;-66
2023/10/22 07:58:47;;;;;;;0.10;0.10;;;;;;;24.31;42.10;99467.25;5058675;28;20097;-66
2023/10/22 08:01:12;;;;;;;0.10;0.10;;;;;;;23.22;43.25;99466.84;5064699;28;20477;-66
2023/10/22 08:03:38;;;;;;;0.13;0.13;;;;;;;21.72;46.56;99475.13;5052256;28;20028;-66
2023/10/22 08:06:05;;;;;;;0.15;0.15;;;;;;;20.79;50.16;99468.63;5052216;28;20747;-66
2023/10/22 08:08:31;;;;;;;0.10;0.10;;;;;;;21.50;50.12;99469.84;5054044;28;20174;-66
2023/10/22 08:11:00;;;;;;;0.20;0.20;;;;;;;22.71;47.38;99470.75;5056117;28;20112;-66
2023/10/22 08:13:25;;;;;;;0.17;0.17;;;;;;;23.13;45.09;99478.53;5063147;28;20160;-65
2023/10/22 08:15:52;;;;;;;0.10;0.10;;;;;;;22.91;45.31;99484.25;5052067;28;20115;-65
2023/10/22 08:18:18;;;;;;;0.20;0.20;;;;;;;23.07;44.98;99484.53;5058374;28;20028;-66
2023/10/22 08:20:43;;;;;;;0.10;0.10;;;;;;;23.35;44.68;99483.72;5071679;28;20028;-66
2023/10/22 08:23:09;;;;;;;0.20;0.20;;;;;;;23.40;44.64;99476.00;5067072;28;20491;-65
2023/10/22 08:25:34;;;;;;;0.10;0.10;;;;;;;23.56;44.29;99480.00;5071737;28;20024;-65
2023/10/22 08:28:00;;;;;;;0.20;0.20;;;;;;;23.71;43.00;99489.41;5071057;28;20329;-65
2023/10/22 08:30:26;;;;;;;0.20;0.20;;;;;;;23.51;44.69;99482.28;5069145;28;20498;-65
2023/10/22 08:32:51;;;;;;;0.20;0.20;;;;;;;23.64;44.07;99489.13;5067955;28;20098;-65
2023/10/22 08:35:17;;;;;;;0.10;0.10;;;;;;;23.52;44.04;99481.28;5070350;28;20123;-65
2023/10/22 08:37:42;;;;;;;0.10;0.10;;;;;;;23.85;44.87;99491.66;5069298;28;20073;-65
2023/10/22 08:40:08;;;;;;;0.10;0.10;;;;;;;23.88;44.07;99496.81;5066044;28;20024;-66
2023/10/22 08:42:35;;;;;;;0.15;0.15;;;;;;;23.53;44.82;99496.56;5049250;28;20366;-66
2023/10/22 08:45:05;;;;;;;0.20;0.20;;;;;;;24.06;43.79;99503.22;5049537;28;20531;-65
2023/10/22 08:47:31;;;;;;;0.10;0.10;;;;;;;24.07;43.69;99496.81;5054105;28;20475;-65
2023/10/22 08:50:00;;;;;;;0.10;0.10;;;;;;;24.20;43.68;99502.78;5067134;28;20032;-65
2023/10/22 08:52:27;;;;;;;0.10;0.10;;;;;;;24.27;43.49;99503.88;5070253;28;20033;-65
2023/10/22 08:54:52;;;;;;;0.10;0.10;;;;;;;23.96;43.74;99507.78;5070406;28;20035;-65
2023/10/22 08:57:20;;;;;;;0.10;0.10;;;;;;;24.16;44.30;99501.34;5070823;28;20028;-66
2023/10/22 08:59:46;;;;;;;0.10;0.10;;;;;;;24.61;43.74;99515.91;5058151;28;20116;-65
2023/10/22 09:02:13;;;;;;;0.10;0.10;;;;;;;24.98;43.17;99508.56;5050781;28;20044;-65
2023/10/22 09:04:39;;;;;;;0.10;0.10;;;;;;;25.62;41.30;99503.81;5059398;28;20032;-65
2023/10/22 09:07:04;;;;;;;0.10;0.10;;;;;;;25.46;41.16;99514.56;5070313;28;20032;-64
2023/10/22 09:09:37;;;;;;;0.10;0.10;;;;;;;24.65;41.46;99511.88;5069973;28;20031;-64
2023/10/22 09:12:03;;;;;;;0.10;0.10;;;;;;;24.30;42.67;99506.31;5079287;28;20346;-64
2023/10/22 09:14:30;;;;;;;0.10;0.10;;;;;;;24.35;42.84;99513.00;5081319;28;20066;-64
2023/10/22 09:16:55;;;;;;;0.10;0.10;;;;;;;24.45;43.72;99513.81;5089847;28;20590;-64
2023/10/22 09:19:39;;;;;;;0.10;0.10;;;;;;;24.43;42.35;99510.41;5090123;28;20031;-64
2023/10/22 09:22:05;;;;;;;0.10;0.10;;;;;;;23.92;42.68;99506.41;5088004;28;20024;-63
2023/10/22 09:24:34;;;;;;;0.08;0.08;;;;;;;23.90;42.71;99508.41;5090640;28;20028;-63
2023/10/22 09:27:00;;;;;;;0.10;0.10;;;;;;;23.97;43.54;99504.94;5090569;28;20024;-64
2023/10/22 09:29:26;;;;;;;0.10;0.10;;;;;;;24.47;42.96;99516.41;5088982;28;20036;-63
2023/10/22 09:31:55;;;;;;;0.10;0.10;;;;;;;24.68;42.53;99514.31;5090481;28;20551;-64
2023/10/22 09:34:30;;;;;;;0.10;0.10;;;;;;;24.85;41.10;99516.25;5090225;28;20105;-64
2023/10/22 09:36:57;;;;;;;0.10;0.10;;;;;;;25.05;41.91;99506.97;5087737;28;20028;-64
2023/10/22 09:39:38;;;;;;;0.10;0.10;;;;;;;24.88;40.71;99513.22;5068958;28;20563;-64
2023/10/22 09:42:08;;;;;;;0.10;0.10;;;;;;;24.47;40.13;99519.13;5067764;28;20638;-63
2023/10/22 09:44:34;;;;;;;0.10;0.10;;;;;;;24.86;42.29;99515.22;5067838;28;20024;-62
2023/10/22 09:47:01;;;;;;;0.10;0.10;;;;;;;25.16;41.42;99514.88;5073618;28;20583;-63
2023/10/22 09:49:32;;;;;;;0.10;0.10;;;;;;;25.33;40.36;99522.22;5068056;28;20516;-63
2023/10/22 09:51:59;;;;;;;0.10;0.10;;;;;;;24.96;40.08;99521.47;5077079;28;20108;-62
2023/10/22 09:54:36;;;;;;;0.10;0.10;;;;;;;24.77;40.08;99524.31;5082495;28;20810;-63
2023/10/22 09:57:08;;;;;;;0.10;0.10;;;;;;;24.71;40.73;99533.09;5088328;28;20053;-62
2023/10/22 09:59:34;;;;;;;0.10;0.10;;;;;;;25.10;41.60;99531.84;5072257;28;20032;-64
2023/10/22 10:02:01;;;;;;;0.10;0.10;;;;;;;24.94;40.50;99528.94;5069804;28;20305;-64
2023/10/22 10:04:26;;;;;;;0.10;0.10;;;;;;;25.16;39.75;99536.66;5071148;28;20040;-64
2023/10/22 10:06:55;;;;;;;0.10;0.10;;;;;;;24.97;40.29;99541.38;5069808;28;20046;-59
2023/10/22 10:09:23;;;;;;;0.10;0.10;;;;;;;24.89;41.86;99542.16;5074376;28;20043;-61
2023/10/22 10:11:49;;;;;;;0.10;0.10;;;;;;;25.27;41.03;99528.28;5087123;28;20970;-61
2023/10/22 10:14:43;;;;;;;0.10;0.10;;;;;;;25.54;40.75;99530.97;5070380;28;20097;-62
2023/10/22 10:17:10;;;;;;;0.10;0.10;;;;;;;25.19;40.40;99547.25;5072909;28;20024;-62
2023/10/22 10:19:36;;;;;;;0.10;0.10;;;;;;;25.28;40.77;99523.69;5075174;28;20063;-62
2023/10/22 10:22:02;;;;;;;0.10;0.10;;;;;;;25.32;40.26;99531.38;5070825;28;20036;-60
2023/10/22 10:24:28;;;;;;;0.10;0.10;;;;;;;25.65;40.98;99538.06;5071106;28;20032;-61
2023/10/22 10:26:57;;;;;;;0.10;0.10;;;;;;;25.87;39.49;99526.66;5085914;28;20028;-60
2023/10/22 10:29:22;;;;;;;0.10;0.10;;;;;;;25.51;39.83;99539.47;5085932;28;20123;-60
2023/10/22 10:31:48;;;;;;;0.10;0.10;;;;;;;25.43;39.76;99539.38;5076697;28;20139;-61
2023/10/22 10:34:39;;;;;;;0.10;0.10;;;;;;;25.36;39.73;99535.56;5068664;28;20368;-61
2023/10/22 10:37:10;;;;;;;0.10;0.10;;;;;;;24.71;40.80;99529.50;5076186;28;20699;-61
2023/10/22 10:39:42;;;;;;;0.10;0.10;;;;;;;24.40;41.50;99534.31;5076282;28;20229;-61
2023/10/22 10:42:09;;;;;;;0.10;0.10;;;;;;;24.29;41.36;99535.34;5087358;28;20024;-61
2023/10/22 10:44:57;;;;;;;0.10;0.10;;;;;;;25.10;40.75;99534.56;5076372;28;20040;-61
2023/10/22 10:47:25;;;;;;;0.10;0.10;;;;;;;25.44;40.40;99532.91;5070002;28;20028;-61
2023/10/22 10:49:59;;;;;;;0.10;0.10;;;;;;;25.33;40.28;99535.84;5067510;28;20089;-61
2023/10/22 10:52:26;;;;;;;0.10;0.10;;;;;;;25.38;38.83;99532.69;5071001;28;20035;-61
2023/10/22 10:54:59;;;;;;;0.10;0.10;;;;;;;25.20;38.01;99529.91;5057705;28;20499;-60
2023/10/22 10:57:37;;;;;;;;;;;;;;;25.21;38.60;99533.47;5069177;28;20563;-61
2023/10/22 11:00:06;;;;;;;0.10;0.10;;;;;;;25.19;39.79;99536.34;5068542;28;19930;-62
2023/10/22 11:02:43;;;;;;;0.10;0.10;;;;;;;24.95;39.81;99546.13;5068243;28;20422;-62
2023/10/22 11:05:10;;;;;;;0.10;0.10;;;;;;;25.42;38.65;99542.28;5071619;28;20024;-61
2023/10/22 11:07:39;;;;;;;0.10;0.10;;;;;;;25.56;39.76;99542.56;5073101;28;20068;-61
2023/10/22 11:10:23;;;;;;;0.10;0.10;;;;;;;25.36;40.22;99538.28;5070858;28;20480;-61
2023/10/22 11:12:49;;;;;;;0.10;0.10;;;;;;;24.63;40.73;99552.81;5073072;28;20094;-61
2023/10/22 11:15:16;;;;;;;0.10;0.10;;;;;;;23.63;41.60;99546.28;5073110;28;20537;-62
2023/10/22 11:17:42;;;;;;;0.10;0.10;;;;;;;23.51;42.88;99547.47;5073312;28;20047;-61
2023/10/22 11:20:09;;;;;;;0.10;0.10;;;;;;;23.37;43.16;99546.00;5084107;28;20493;-61
2023/10/22 11:22:37;;;;;;;0.10;0.10;;;;;;;24.02;42.73;99553.47;5087883;28;20392;-61
2023/10/22 11:25:10;;;;;;;0.10;0.10;;;;;;;23.78;41.42;99551.16;5073318;28;20032;-62
2023/10/22 11:27:37;;;;;;;0.10;0.10;;;;;;;22.97;42.22;99546.06;5072153;28;20035;-62
2023/10/22 11:30:03;;;;;;;0.10;0.10;;;;;;;22.44;43.08;99544.56;5078856;28;20051;-62
2023/10/22 11:32:29;;;;;;;0.10;0.10;;;;;;;22.86;45.22;99543.47;5071729;28;20028;-62